Time;durP1;ratioP1;P1;durP2;ratioP2;P2;SDS_P1;SDS_P2;PMS_P1;PMS_P2;Temp;Humidity;BMP_temperature;BMP_pressure;BME280_temperature;BME280_humidity;BME280_pressure;Samples;Min_cycle;Max_cycle;Signal;HPM_P1;HPM_P2
2021/04/12 00:01:49;;;;;;;3.43;2.23;;;;;;;5.21;63.49;100778.19;5121403;28;20497;-66
2021/04/12 00:04:20;;;;;;;3.27;1.90;;;;;;;4.98;64.12;100784.88;5122737;28;20430;-66
2021/04/12 00:06:49;;;;;;;2.23;1.50;;;;;;;4.86;64.74;100775.00;5122014;28;20489;-66
2021/04/12 00:09:19;;;;;;;2.33;1.87;;;;;;;5.05;64.08;100780.06;5122082;28;20423;-66
2021/04/12 00:11:48;;;;;;;3.43;2.30;;;;;;;4.99;64.07;100786.56;5121702;28;20477;-66
2021/04/12 00:14:18;;;;;;;5.60;2.35;;;;;;;5.21;63.46;100780.84;5121870;28;20473;-66
2021/04/12 00:16:48;;;;;;;4.10;2.07;;;;;;;5.25;63.49;100778.84;5122343;28;20257;-66
2021/04/12 00:19:17;;;;;;;3.30;2.20;;;;;;;5.13;63.66;100769.00;5122082;28;20474;-66
2021/04/12 00:21:49;;;;;;;3.00;2.00;;;;;;;5.16;63.56;100774.13;5121358;28;20497;-66
2021/04/12 00:24:18;;;;;;;3.03;2.30;;;;;;;5.08;63.91;100774.56;5122163;28;20458;-66
2021/04/12 00:26:49;;;;;;;3.13;2.50;;;;;;;5.03;64.00;100766.03;5122001;28;20499;-65
2021/04/12 00:29:20;;;;;;;3.40;2.40;;;;;;;5.02;64.07;100777.59;5121734;28;20603;-66
2021/04/12 00:31:50;;;;;;;2.03;1.83;;;;;;;5.01;64.33;100773.25;5121790;28;20505;-66
2021/04/12 00:34:20;;;;;;;5.93;2.37;;;;;;;4.86;64.73;100769.69;5122420;28;20494;-66
2021/04/12 00:36:50;;;;;;;2.13;1.93;;;;;;;4.95;64.65;100785.06;5121455;28;20478;-66
2021/04/12 00:39:20;;;;;;;3.80;2.60;;;;;;;4.55;65.71;100786.53;5122199;28;20469;-66
2021/04/12 00:42:25;;;;;;;5.25;2.25;;;;;;;4.85;64.77;100798.00;5121585;28;20466;-65
2021/04/12 00:45:21;;;;;;;4.90;2.53;;;;;;;4.97;64.40;100791.13;5038763;28;20763;-65
2021/04/12 00:47:53;;;;;;;4.40;2.50;;;;;;;5.00;64.16;100788.28;5036042;28;20560;-65
2021/04/12 00:50:28;;;;;;;6.15;2.72;;;;;;;4.98;64.10;100798.13;5038573;28;20465;-66
2021/04/12 00:53:30;;;;;;;4.10;2.10;;;;;;;4.90;64.54;100797.72;5038242;28;20234;-66
2021/04/12 00:55:59;;;;;;;5.37;2.50;;;;;;;4.80;64.66;100804.50;5036138;28;20484;-64
2021/04/12 00:58:35;;;;;;;3.67;2.60;;;;;;;4.69;65.33;100802.50;5038584;28;20481;-66
2021/04/12 01:01:09;;;;;;;4.77;2.67;;;;;;;4.60;65.51;100803.88;5041371;28;20495;-66
2021/04/12 01:03:58;;;;;;;3.17;2.40;;;;;;;4.86;64.60;100805.00;5042165;28;20445;-67
2021/04/12 01:06:31;;;;;;;6.37;4.33;;;;;;;4.83;64.52;100807.84;5041096;28;20239;-66
2021/04/12 01:09:19;;;;;;;3.50;2.40;;;;;;;4.72;64.81;100807.59;5042084;28;20449;-67
2021/04/12 01:12:16;;;;;;;2.90;2.13;;;;;;;4.61;65.27;100800.28;5041236;28;20512;-64
2021/04/12 01:15:32;;;;;;;3.40;2.83;;;;;;;4.57;65.36;100797.91;5030322;28;21016;-65
2021/04/12 01:18:16;;;;;;;8.00;2.47;;;;;;;4.47;65.71;100806.38;5041688;28;20478;-65
2021/04/12 01:21:04;;;;;;;5.80;2.27;;;;;;;4.46;65.66;100803.81;5093464;28;20462;-65
2021/04/12 01:24:05;;;;;;;2.63;2.27;;;;;;;4.37;65.94;100801.69;5124717;28;20482;-65
2021/04/12 01:26:51;;;;;;;6.10;3.60;;;;;;;4.40;65.88;100806.81;5124491;28;20478;-65
2021/04/12 01:29:59;;;;;;;9.43;2.63;;;;;;;4.36;66.08;100816.72;5124805;28;20227;-65
2021/04/12 01:33:10;;;;;;;5.30;2.00;;;;;;;4.42;66.00;100812.88;5035174;28;20581;-65
2021/04/12 01:35:38;;;;;;;2.60;2.13;;;;;;;4.38;65.83;100819.28;5015675;28;20570;-65
2021/04/12 01:38:29;;;;;;;3.40;2.23;;;;;;;4.39;65.83;100827.13;5027925;28;20473;-66
2021/04/12 01:41:17;;;;;;;4.70;2.20;;;;;;;4.39;65.86;100829.75;5037866;28;20477;-67
2021/04/12 01:44:07;;;;;;;3.20;2.73;;;;;;;4.32;65.98;100831.06;5041098;28;20589;-66
2021/04/12 01:46:48;;;;;;;5.63;2.53;;;;;;;4.29;66.09;100832.09;5040360;28;20573;-66
2021/04/12 01:49:23;;;;;;;4.33;2.53;;;;;;;4.18;66.34;100833.63;5027791;28;20445;-64
2021/04/12 01:52:07;;;;;;;5.37;2.40;;;;;;;4.22;66.17;100833.38;5040366;28;20533;-64
2021/04/12 01:54:46;;;;;;;4.67;2.40;;;;;;;4.20;66.30;100834.38;5041639;28;20491;-64
2021/04/12 01:57:47;;;;;;;3.87;2.20;;;;;;;4.17;66.40;100838.06;5040998;28;20482;-64
2021/04/12 02:00:26;;;;;;;3.00;2.50;;;;;;;4.12;66.24;100848.91;5039641;28;20457;-65
2021/04/12 02:02:58;;;;;;;2.33;2.07;;;;;;;4.09;66.51;100845.56;5021330;28;20242;-65
2021/04/12 02:06:11;;;;;;;3.83;2.30;;;;;;;4.04;66.60;100856.41;5022101;28;20482;-65
2021/04/12 02:08:42;;;;;;;6.30;2.50;;;;;;;3.95;67.00;100846.31;5019930;28;20453;-65
2021/04/12 02:11:14;;;;;;;9.23;2.67;;;;;;;4.05;66.85;100850.19;5059688;28;20560;-65
2021/04/12 02:13:53;;;;;;;4.83;2.73;;;;;;;4.03;67.18;100843.25;5060949;28;20465;-65
2021/04/12 02:16:30;;;;;;;7.25;2.90;;;;;;;4.17;66.55;100861.03;5060086;28;20507;-65
2021/04/12 02:19:19;;;;;;;8.13;2.80;;;;;;;4.06;66.76;100867.78;5060959;28;20341;-66
2021/04/12 02:21:58;;;;;;;7.97;2.70;;;;;;;4.29;66.41;100869.16;5059136;28;20916;-66
2021/04/12 02:24:30;;;;;;;5.57;3.77;;;;;;;4.37;65.94;100867.88;5060976;28;20256;-65
2021/04/12 02:27:04;;;;;;;4.27;2.80;;;;;;;4.29;65.95;100876.25;5060114;28;20515;-66
2021/04/12 02:29:33;;;;;;;3.20;2.90;;;;;;;4.24;66.28;100883.59;5060403;28;20456;-66
2021/04/12 02:32:18;;;;;;;5.78;3.30;;;;;;;4.26;66.15;100894.94;5059330;28;20260;-66
2021/04/12 02:34:48;;;;;;;9.43;3.47;;;;;;;4.18;66.33;100895.34;5060586;28;20206;-66
2021/04/12 02:37:51;;;;;;;5.53;3.30;;;;;;;3.88;67.48;100889.94;5060172;28;20249;-66
2021/04/12 02:40:47;;;;;;;4.80;3.80;;;;;;;4.08;66.86;100897.66;5039470;28;20604;-66
2021/04/12 02:43:18;;;;;;;7.70;4.23;;;;;;;4.06;66.85;100903.94;5070430;28;20634;-66
2021/04/12 02:46:03;;;;;;;5.80;3.70;;;;;;;4.08;66.65;100897.66;5102865;28;20901;-66
2021/04/12 02:48:38;;;;;;;7.73;3.73;;;;;;;4.09;66.76;100894.06;5103497;28;20487;-68
2021/04/12 02:51:17;;;;;;;6.80;4.43;;;;;;;3.92;67.42;100899.41;5083993;28;20474;-65
2021/04/12 02:54:21;;;;;;;8.30;4.10;;;;;;;3.96;67.37;100904.44;5103061;28;20482;-65
2021/04/12 02:57:03;;;;;;;4.65;3.55;;;;;;;4.03;67.04;100902.34;5102548;28;20505;-65
2021/04/12 02:59:41;;;;;;;8.75;4.55;;;;;;;4.07;66.97;100900.38;5102242;28;20264;-65
2021/04/12 03:02:30;;;;;;;5.60;3.70;;;;;;;4.07;66.77;100897.72;5098213;28;20232;-65
2021/04/12 03:05:21;;;;;;;10.30;4.10;;;;;;;3.93;67.22;100907.25;5102961;28;20446;-65
2021/04/12 03:08:13;;;;;;;6.70;5.20;;;;;;;4.04;67.04;100889.94;5082478;28;20464;-65
2021/04/12 03:10:56;;;;;;;4.23;3.83;;;;;;;3.99;67.35;100892.00;5082238;28;20468;-64
2021/04/12 03:13:39;;;;;;;7.53;4.80;;;;;;;3.95;67.33;100894.78;5093771;28;20531;-65
2021/04/12 03:16:24;;;;;;;6.70;4.87;;;;;;;3.89;67.46;100891.63;5102338;28;20509;-65
2021/04/12 03:19:24;;;;;;;6.00;4.40;;;;;;;4.18;66.68;100898.00;5102031;28;20527;-65
2021/04/12 03:22:05;;;;;;;5.72;5.13;;;;;;;4.05;67.03;100897.81;5101146;28;20432;-65
2021/04/12 03:24:36;;;;;;;5.93;4.33;;;;;;;4.10;66.79;100906.34;5106884;28;20240;-65
2021/04/12 03:27:11;;;;;;;4.93;3.80;;;;;;;4.04;67.11;100911.13;5122267;28;20474;-65
2021/04/12 03:29:45;;;;;;;6.60;4.20;;;;;;;4.04;67.07;100911.13;5122358;28;20576;-65
2021/04/12 03:32:20;;;;;;;6.77;4.87;;;;;;;3.90;67.08;100911.84;5121884;28;20995;-65
2021/04/12 03:34:56;;;;;;;6.82;4.80;;;;;;;4.00;66.94;100918.38;5122046;28;20476;-66
2021/04/12 03:37:46;;;;;;;5.55;4.30;;;;;;;3.95;67.05;100918.59;5122303;28;20262;-66
2021/04/12 03:40:25;;;;;;;7.63;4.77;;;;;;;4.10;66.86;100914.28;5121811;28;20200;-66
2021/04/12 03:43:02;;;;;;;6.10;4.30;;;;;;;4.07;66.97;100926.84;5121959;28;20474;-66
2021/04/12 03:46:02;;;;;;;5.45;4.55;;;;;;;4.00;66.76;100921.00;5122580;28;20473;-66
2021/04/12 03:48:39;;;;;;;5.10;3.83;;;;;;;3.91;66.97;100927.66;5122643;28;20226;-66
2021/04/12 03:51:38;;;;;;;5.30;4.80;;;;;;;3.80;67.37;100926.50;5121725;28;20516;-66
2021/04/12 03:54:34;;;;;;;5.70;4.57;;;;;;;3.81;67.30;100929.06;5120371;28;20516;-66
2021/04/12 03:57:24;;;;;;;6.78;4.72;;;;;;;3.94;66.87;100935.44;5118650;28;20703;-66
2021/04/12 04:00:05;;;;;;;9.13;5.50;;;;;;;3.89;66.85;100934.81;5121720;28;20255;-65
2021/04/12 04:02:41;;;;;;;6.82;5.20;;;;;;;4.00;66.55;100936.03;5113139;28;20496;-65
2021/04/12 04:05:17;;;;;;;10.23;5.27;;;;;;;4.05;66.64;100934.00;5120433;28;20204;-65
2021/04/12 04:08:02;;;;;;;9.40;4.73;;;;;;;4.00;66.57;100939.53;5122178;28;20445;-65
2021/04/12 04:10:57;;;;;;;6.23;4.87;;;;;;;4.10;66.23;100929.31;5122123;27;20466;-65
2021/04/12 04:13:41;;;;;;;10.53;4.77;;;;;;;4.04;66.25;100938.44;5113372;28;20489;-66
2021/04/12 04:16:34;;;;;;;7.73;5.37;;;;;;;3.94;66.81;100942.50;5116894;27;20476;-66
2021/04/12 04:19:04;;;;;;;7.20;4.72;;;;;;;3.98;67.15;100938.75;5119529;28;20482;-65
2021/04/12 04:21:43;;;;;;;6.67;4.93;;;;;;;4.02;66.86;100950.03;5119320;28;20247;-66
2021/04/12 04:24:35;;;;;;;7.47;5.47;;;;;;;3.99;66.60;100951.03;5120380;28;20453;-66
2021/04/12 04:27:17;;;;;;;7.60;6.38;;;;;;;3.89;66.54;100952.47;5121444;28;20481;-65
2021/04/12 04:30:09;;;;;;;8.90;5.60;;;;;;;3.85;66.58;100951.75;5119839;28;20228;-66
2021/04/12 04:33:04;;;;;;;6.30;4.72;;;;;;;3.59;67.55;100961.06;5096919;28;20478;-66
2021/04/12 04:35:51;;;;;;;9.80;5.10;;;;;;;3.62;67.76;100955.59;5103843;28;20763;-65
2021/04/12 04:38:54;;;;;;;7.10;5.00;;;;;;;3.50;68.02;100964.16;5101592;28;20487;-65
2021/04/12 04:41:37;;;;;;;5.37;4.53;;;;;;;3.29;68.93;100966.94;5114549;28;20473;-65
2021/04/12 04:44:34;;;;;;;8.90;5.30;;;;;;;3.29;68.81;100966.94;5120566;28;20521;-65
2021/04/12 04:47:30;;;;;;;9.53;5.93;;;;;;;3.40;68.85;100966.41;5125071;28;20236;-65
2021/04/12 04:50:09;;;;;;;6.40;5.40;;;;;;;3.41;68.69;100968.13;5115915;28;20455;-65
2021/04/12 04:52:52;;;;;;;8.07;5.70;;;;;;;3.45;68.18;100972.31;5099466;28;20979;-65
2021/04/12 04:55:47;;;;;;;6.13;5.50;;;;;;;3.66;67.87;100969.53;5104187;28;20485;-66
2021/04/12 04:58:18;;;;;;;9.73;5.53;;;;;;;3.55;68.04;100981.50;5101033;28;20258;-66
2021/04/12 05:01:15;;;;;;;7.05;6.35;;;;;;;3.76;67.26;100984.84;5109836;28;20473;-66
2021/04/12 05:04:03;;;;;;;10.32;6.00;;;;;;;4.01;66.47;100993.28;5041363;28;20218;-65
2021/04/12 05:07:05;;;;;;;9.73;6.40;;;;;;;3.87;66.92;101000.19;5035887;28;20257;-65
2021/04/12 05:09:42;;;;;;;10.27;5.57;;;;;;;3.98;66.95;101007.56;5055092;28;20447;-66
2021/04/12 05:12:47;;;;;;;6.85;5.82;;;;;;;3.87;67.03;101007.25;5060568;28;20527;-65
2021/04/12 05:15:30;;;;;;;11.60;5.80;;;;;;;3.97;66.56;101016.41;4992109;28;20220;-65
2021/04/12 05:18:09;;;;;;;6.53;4.95;;;;;;;4.36;65.36;101011.75;4995534;28;20445;-66
2021/04/12 05:20:56;;;;;;;13.20;6.10;;;;;;;4.22;66.08;101016.00;4993176;28;20263;-65
2021/04/12 05:23:42;;;;;;;5.67;5.10;;;;;;;3.91;66.16;101006.16;5001506;28;20470;-66
2021/04/12 05:26:23;;;;;;;5.67;5.07;;;;;;;4.15;65.81;101009.34;5001129;28;20514;-65
2021/04/12 05:29:12;;;;;;;8.83;5.70;;;;;;;4.55;64.60;101022.22;5000896;28;20484;-65
2021/04/12 05:31:52;;;;;;;6.50;5.60;;;;;;;4.76;64.25;101028.16;4992527;28;20502;-66
2021/04/12 05:34:39;;;;;;;5.23;4.73;;;;;;;5.12;62.41;101025.25;5000833;28;20518;-66
2021/04/12 05:37:17;;;;;;;11.57;4.70;;;;;;;5.36;61.98;101028.28;4999734;28;20565;-66
2021/04/12 05:40:03;;;;;;;12.07;5.70;;;;;;;5.90;59.88;101035.75;5032573;28;20508;-68
2021/04/12 05:42:40;;;;;;;5.17;4.67;;;;;;;5.94;59.78;101037.31;5054712;28;20533;-66
2021/04/12 05:45:43;;;;;;;7.30;5.23;;;;;;;5.91;59.55;101053.41;5058817;28;20495;-65
2021/04/12 05:48:25;;;;;;;7.40;4.83;;;;;;;6.25;58.35;101050.56;5110682;28;20463;-66
2021/04/12 05:51:00;;;;;;;7.27;5.53;;;;;;;6.28;58.50;101059.19;5122627;28;20877;-66
2021/04/12 05:53:56;;;;;;;7.70;3.90;;;;;;;6.56;57.80;101057.50;5124343;28;20475;-66
2021/04/12 05:56:37;;;;;;;5.90;4.23;;;;;;;6.32;58.12;101067.81;5118483;28;20482;-69
2021/04/12 05:59:28;;;;;;;6.10;4.23;;;;;;;6.62;57.19;101066.91;5116045;28;20494;-68
2021/04/12 06:02:11;;;;;;;6.30;3.63;;;;;;;7.30;54.87;101072.31;5119121;28;20521;-70
2021/04/12 06:04:47;;;;;;;4.90;4.07;;;;;;;7.59;53.76;101064.25;5121965;28;20761;-68
2021/04/12 06:07:42;;;;;;;6.27;3.20;;;;;;;7.38;54.90;101073.63;5122698;28;20458;-69
2021/04/12 06:10:37;;;;;;;11.27;3.77;;;;;;;7.18;55.99;101078.41;5112242;28;20950;-69
